createdAt,value
2022-12-03T00:00:51.991Z,10.07
2022-12-03T00:03:18.888Z,10.73
2022-12-03T00:05:49.009Z,10.00
2022-12-03T00:08:16.591Z,8.20
2022-12-03T00:10:43.435Z,7.60
2022-12-03T00:13:10.173Z,10.15
2022-12-03T00:15:37.008Z,9.40
2022-12-03T00:18:04.167Z,8.77
2022-12-03T00:20:30.944Z,9.10
2022-12-03T00:22:57.713Z,10.32
2022-12-03T00:25:24.581Z,11.02
2022-12-03T00:27:51.373Z,10.25
2022-12-03T00:30:18.240Z,9.80
2022-12-03T00:32:45.019Z,9.15
2022-12-03T00:35:11.788Z,9.10
2022-12-03T00:37:38.641Z,11.82
2022-12-03T00:40:06.194Z,9.88
2022-12-03T00:42:33.088Z,14.13
2022-12-03T00:45:00.234Z,9.80
2022-12-03T00:47:26.994Z,10.40
2022-12-03T00:49:53.813Z,11.65
2022-12-03T00:52:20.663Z,12.45
2022-12-03T00:54:49.076Z,12.82
2022-12-03T00:57:16.196Z,11.65
2022-12-03T00:59:43.073Z,14.85
2022-12-03T01:02:10.167Z,12.73
2022-12-03T01:04:37.570Z,10.98
2022-12-03T01:07:04.777Z,15.27
2022-12-03T01:09:31.829Z,12.52
2022-12-03T01:11:58.614Z,11.85
2022-12-03T01:14:25.707Z,12.25
2022-12-03T01:16:52.481Z,14.13
2022-12-03T01:19:19.605Z,10.88
2022-12-03T01:21:49.638Z,13.05
2022-12-03T01:24:17.174Z,11.98
2022-12-03T01:26:44.075Z,13.15
2022-12-03T01:29:10.843Z,14.75
2022-12-03T01:31:56.129Z,12.15
2022-12-03T01:34:22.905Z,10.23
2022-12-03T01:36:49.804Z,12.48
2022-12-03T01:39:16.572Z,14.55
2022-12-03T01:41:43.527Z,13.93
2022-12-03T01:44:32.019Z,12.27
2022-12-03T01:47:02.035Z,13.32
2022-12-03T01:49:52.384Z,18.23
2022-12-03T01:52:22.395Z,13.95
2022-12-03T01:54:55.132Z,11.75
2022-12-03T01:57:24.598Z,12.73
2022-12-03T01:59:52.528Z,13.35
2022-12-03T02:02:26.014Z,12.52
2022-12-03T02:04:53.964Z,15.32
2022-12-03T02:07:20.986Z,14.93
2022-12-03T02:09:47.798Z,15.18
2022-12-03T02:12:17.633Z,16.17
2022-12-03T02:14:44.531Z,13.48
2022-12-03T02:17:12.383Z,16.80
2022-12-03T02:19:39.396Z,14.57
2022-12-03T02:22:15.338Z,13.70
2022-12-03T02:27:13.487Z,13.35
2022-12-03T02:29:40.355Z,18.30
2022-12-03T02:32:07.325Z,14.32
2022-12-03T02:34:42.976Z,15.60
2022-12-03T02:37:35.587Z,13.00
2022-12-03T02:40:07.336Z,16.80
2022-12-03T02:42:35.440Z,15.85
2022-12-03T02:45:11.651Z,16.73
2022-12-03T02:47:46.016Z,16.23
2022-12-03T02:50:17.496Z,17.05
2022-12-03T02:52:46.328Z,17.65
2022-12-03T02:55:15.376Z,16.23
2022-12-03T02:57:45.418Z,15.63
2022-12-03T03:00:13.055Z,18.05
2022-12-03T03:02:41.403Z,19.63
2022-12-03T03:05:11.522Z,14.70
2022-12-03T03:07:39.604Z,15.07
2022-12-03T03:10:09.152Z,16.00
2022-12-03T03:12:39.216Z,20.65
2022-12-03T03:15:07.782Z,17.05
2022-12-03T03:17:34.915Z,17.33
2022-12-03T03:20:02.937Z,18.05
2022-12-03T03:22:34.485Z,16.58
2022-12-03T03:25:01.570Z,16.65
2022-12-03T03:27:28.837Z,17.83
2022-12-03T03:29:57.887Z,21.05
2022-12-03T03:32:26.548Z,20.65
2022-12-03T03:34:53.908Z,17.52
2022-12-03T03:37:21.075Z,19.10
2022-12-03T03:39:47.952Z,17.88
2022-12-03T03:42:15.022Z,17.83
2022-12-03T03:44:41.904Z,21.23
2022-12-03T03:47:08.979Z,18.23
2022-12-03T03:49:36.105Z,17.38
2022-12-03T03:52:03.744Z,17.10
2022-12-03T03:54:31.700Z,20.48
2022-12-03T03:56:58.804Z,16.70
2022-12-03T03:59:25.602Z,16.70
2022-12-03T04:01:52.735Z,17.88
2022-12-03T04:04:22.369Z,22.42
2022-12-03T04:06:49.713Z,16.63
2022-12-03T04:09:16.607Z,14.25
2022-12-03T04:12:01.976Z,21.38
2022-12-03T04:14:28.839Z,14.73
2022-12-03T04:16:55.736Z,16.42
2022-12-03T04:19:22.559Z,16.30
2022-12-03T04:22:07.807Z,16.73
2022-12-03T04:24:34.662Z,17.02
2022-12-03T04:27:20.044Z,16.65
2022-12-03T04:29:46.818Z,17.95
2022-12-03T04:32:32.430Z,21.98
2022-12-03T04:35:17.790Z,20.17
2022-12-03T04:37:44.592Z,18.70
2022-12-03T04:40:30.248Z,20.23
2022-12-03T04:42:57.052Z,22.17
2022-12-03T04:45:23.858Z,18.70
2022-12-03T04:47:50.687Z,19.33
2022-12-03T04:50:17.469Z,17.65
2022-12-03T04:52:44.288Z,18.33
2022-12-03T04:55:11.082Z,18.75
2022-12-03T04:57:37.911Z,18.63
2022-12-03T05:00:05.898Z,16.13
2022-12-03T05:02:33.052Z,18.17
2022-12-03T05:04:59.928Z,19.17
2022-12-03T05:07:26.709Z,17.27
2022-12-03T05:09:53.630Z,19.75
2022-12-03T05:12:20.374Z,17.05
2022-12-03T05:14:47.158Z,17.17
2022-12-03T05:17:14.034Z,19.27
2022-12-03T05:19:59.675Z,18.70
2022-12-03T05:22:26.442Z,18.95
2022-12-03T05:24:53.487Z,16.00
2022-12-03T05:27:23.888Z,18.85
2022-12-03T05:29:51.731Z,19.73
2022-12-03T05:32:19.265Z,21.50
2022-12-03T05:34:46.039Z,18.58
2022-12-03T05:37:12.865Z,19.25
2022-12-03T05:39:39.672Z,18.83
2022-12-03T05:42:25.170Z,18.50
2022-12-03T05:44:52.210Z,17.85
2022-12-03T05:47:19.121Z,16.92
2022-12-03T05:49:45.925Z,19.65
2022-12-03T05:52:12.905Z,18.40
2022-12-03T05:54:39.703Z,19.27
2022-12-03T05:57:06.994Z,20.38
2022-12-03T05:59:34.364Z,16.27
2022-12-03T06:02:01.250Z,17.92
2022-12-03T06:04:28.158Z,16.90
2022-12-03T06:06:54.935Z,17.45
2022-12-03T06:09:21.777Z,16.95
2022-12-03T06:11:53.404Z,15.75
2022-12-03T06:14:20.846Z,16.35
2022-12-03T06:16:47.635Z,20.00
2022-12-03T06:19:14.450Z,16.27
2022-12-03T06:21:41.800Z,15.52
2022-12-03T06:24:08.609Z,16.10
2022-12-03T06:26:35.420Z,18.10
2022-12-03T06:29:02.246Z,14.07
2022-12-03T06:31:29.225Z,14.15
2022-12-03T06:33:56.070Z,16.80
2022-12-03T06:36:23.568Z,17.48
2022-12-03T06:38:50.483Z,13.77
2022-12-03T06:41:17.333Z,16.98
2022-12-03T06:43:44.125Z,16.65
2022-12-03T06:46:11.035Z,14.15
2022-12-03T06:48:37.879Z,16.55
2022-12-03T06:51:05.837Z,16.75
2022-12-03T06:53:32.612Z,14.75
2022-12-03T06:55:59.360Z,18.48
2022-12-03T06:58:41.171Z,15.77
2022-12-03T07:01:07.986Z,13.23
2022-12-03T07:03:34.750Z,15.00
2022-12-03T07:06:01.526Z,13.32
2022-12-03T07:08:28.571Z,13.68
2022-12-03T07:10:55.416Z,14.30
2022-12-03T07:13:22.293Z,16.10
2022-12-03T07:15:49.136Z,15.32
2022-12-03T07:18:15.923Z,15.25
2022-12-03T07:20:42.683Z,14.15
2022-12-03T07:23:09.460Z,13.60
2022-12-03T07:25:36.246Z,17.75
2022-12-03T07:28:03.220Z,18.35
2022-12-03T07:30:29.988Z,14.02
2022-12-03T07:32:57.048Z,14.35
2022-12-03T07:35:26.906Z,14.43
2022-12-03T07:37:53.844Z,13.10
2022-12-03T07:40:20.624Z,16.25
2022-12-03T07:42:47.400Z,15.60
2022-12-03T07:45:14.238Z,12.52
2022-12-03T07:47:41.039Z,15.95
2022-12-03T07:50:08.414Z,15.50
2022-12-03T07:52:35.199Z,15.02
2022-12-03T07:55:01.986Z,13.52
2022-12-03T07:57:28.760Z,12.98
2022-12-03T07:59:55.566Z,15.88
2022-12-03T08:02:22.404Z,15.75
2022-12-03T08:04:49.263Z,12.93
2022-12-03T08:07:16.206Z,15.88
2022-12-03T08:09:43.312Z,15.10
2022-12-03T08:12:22.172Z,12.57
2022-12-03T08:14:49.211Z,13.93
2022-12-03T08:17:17.828Z,14.55
2022-12-03T08:19:47.783Z,11.63
2022-12-03T08:22:16.097Z,15.85
2022-12-03T08:24:43.348Z,17.77
2022-12-03T08:27:19.827Z,18.50
2022-12-03T08:29:46.857Z,14.95
2022-12-03T08:32:13.820Z,15.85
2022-12-03T08:34:43.239Z,18.05
2022-12-03T08:37:19.715Z,15.40
2022-12-03T08:39:49.203Z,17.05
2022-12-03T08:42:42.344Z,15.70
2022-12-03T08:45:40.142Z,14.52
2022-12-03T08:48:34.186Z,16.25
2022-12-03T08:51:26.838Z,19.02
2022-12-03T08:54:04.123Z,14.77
2022-12-03T08:56:35.909Z,14.80
2022-12-03T08:59:22.805Z,15.60
2022-12-03T09:01:51.661Z,16.27
2022-12-03T09:04:35.679Z,17.77
2022-12-03T09:07:02.775Z,15.35
2022-12-03T09:09:29.842Z,16.10
2022-12-03T09:11:56.749Z,16.13
2022-12-03T09:14:23.928Z,15.63
2022-12-03T09:16:55.423Z,19.73
2022-12-03T09:19:24.755Z,19.13
2022-12-03T09:21:52.751Z,16.15
2022-12-03T09:24:20.764Z,16.23
2022-12-03T09:26:47.634Z,16.02
2022-12-03T09:29:14.479Z,15.68
2022-12-03T09:31:41.657Z,18.20
2022-12-03T09:34:10.833Z,14.68
2022-12-03T09:36:37.864Z,17.10
2022-12-03T09:39:04.752Z,18.25
2022-12-03T09:41:31.595Z,16.83
2022-12-03T09:44:06.202Z,16.55
2022-12-03T09:46:36.136Z,15.85
2022-12-03T09:49:05.046Z,19.02
2022-12-03T09:51:36.183Z,20.42
2022-12-03T09:54:05.772Z,14.20
2022-12-03T09:56:37.738Z,16.58
2022-12-03T09:59:14.267Z,16.92
2022-12-03T10:01:41.362Z,17.25
2022-12-03T10:04:08.477Z,16.75
2022-12-03T10:06:37.900Z,15.43
2022-12-03T10:09:11.605Z,14.70
2022-12-03T10:11:38.681Z,13.77
2022-12-03T10:14:06.173Z,14.63
2022-12-03T10:16:34.468Z,17.15
2022-12-03T10:19:01.482Z,12.02
2022-12-03T10:21:38.274Z,15.57
2022-12-03T10:24:16.997Z,16.08
2022-12-03T10:26:45.586Z,15.18
2022-12-03T10:29:25.859Z,15.80
2022-12-03T10:31:59.490Z,16.60
2022-12-03T10:34:36.993Z,17.90
2022-12-03T10:37:19.916Z,14.75
2022-12-03T10:40:00.191Z,17.70
2022-12-03T10:42:30.273Z,16.67
2022-12-03T10:45:12.790Z,17.17
2022-12-03T10:47:39.759Z,16.30
2022-12-03T10:50:18.538Z,15.07
2022-12-03T10:52:46.482Z,20.75
2022-12-03T10:55:14.885Z,20.92
2022-12-03T10:57:45.562Z,17.95
2022-12-03T11:00:18.901Z,17.58
2022-12-03T11:02:53.029Z,16.92
2022-12-03T11:05:28.914Z,15.57
2022-12-03T11:07:56.835Z,20.05
2022-12-03T11:10:24.004Z,19.85
2022-12-03T11:13:29.623Z,19.33
2022-12-03T11:15:56.883Z,15.95
2022-12-03T11:18:50.473Z,17.70
2022-12-03T11:21:17.729Z,17.60
2022-12-03T11:23:44.649Z,19.90
2022-12-03T11:26:19.260Z,15.00
2022-12-03T11:28:46.651Z,19.17
2022-12-03T11:31:36.039Z,16.88
2022-12-03T11:34:18.261Z,18.38
2022-12-03T11:37:09.877Z,20.00
2022-12-03T11:39:51.761Z,16.73
2022-12-03T11:42:27.495Z,20.50
2022-12-03T11:45:06.324Z,18.60
2022-12-03T11:48:01.286Z,16.75
2022-12-03T11:50:39.640Z,18.80
2022-12-03T11:53:23.450Z,19.60
2022-12-03T11:56:06.496Z,18.05
2022-12-03T11:58:35.951Z,19.55
2022-12-03T12:01:06.330Z,20.10
2022-12-03T12:03:41.562Z,16.85
2022-12-03T12:06:11.351Z,17.45
2022-12-03T12:08:41.959Z,17.85
2022-12-03T12:11:33.015Z,20.77
2022-12-03T12:14:04.746Z,17.85
2022-12-03T12:16:52.089Z,22.70
2022-12-03T12:19:35.075Z,19.38
2022-12-03T12:22:26.907Z,20.52
2022-12-03T12:25:03.980Z,20.08
2022-12-03T12:27:34.306Z,18.70
2022-12-03T12:30:28.930Z,18.15
2022-12-03T12:33:07.334Z,17.67
2022-12-03T12:35:34.130Z,19.45
2022-12-03T12:38:07.012Z,22.35
2022-12-03T12:40:36.138Z,21.42
2022-12-03T12:43:17.753Z,17.67
2022-12-03T12:45:49.662Z,16.90
2022-12-03T12:48:20.456Z,20.88
2022-12-03T12:50:51.043Z,18.38
2022-12-03T12:53:28.102Z,20.35
2022-12-03T12:56:00.659Z,20.00
2022-12-03T12:58:31.854Z,21.58
2022-12-03T13:01:04.199Z,22.02
2022-12-03T13:03:34.899Z,20.33
2022-12-03T13:06:02.939Z,20.38
2022-12-03T13:08:39.183Z,17.08
2022-12-03T13:11:16.919Z,18.65
2022-12-03T13:13:44.518Z,21.17
2022-12-03T13:16:13.511Z,16.70
2022-12-03T13:18:45.503Z,18.23
2022-12-03T13:21:38.078Z,19.83
2022-12-03T13:24:31.461Z,18.02
2022-12-03T13:27:00.805Z,16.67
2022-12-03T13:29:28.218Z,18.75
2022-12-03T13:32:01.496Z,16.48
2022-12-03T13:34:32.703Z,16.17
2022-12-03T13:37:01.942Z,18.38
2022-12-03T13:39:35.113Z,21.63
2022-12-03T13:42:38.638Z,15.40
2022-12-03T13:45:35.394Z,17.65
2022-12-03T13:48:15.242Z,17.08
2022-12-03T13:50:45.974Z,17.65
2022-12-03T13:53:38.541Z,17.02
2022-12-03T13:56:18.575Z,15.32
2022-12-03T13:58:45.348Z,16.92
2022-12-03T14:01:12.209Z,18.38
2022-12-03T14:03:39.013Z,17.25
2022-12-03T14:06:06.013Z,16.88
2022-12-03T14:08:32.780Z,18.88
2022-12-03T14:11:00.826Z,17.02
2022-12-03T14:13:27.970Z,18.73
2022-12-03T14:15:54.834Z,20.13
2022-12-03T14:18:21.710Z,19.45
2022-12-03T14:20:48.714Z,19.95
2022-12-03T14:23:15.665Z,20.50
2022-12-03T14:25:44.039Z,18.08
2022-12-03T14:28:11.122Z,14.65
2022-12-03T14:30:38.019Z,18.23
2022-12-03T14:33:05.120Z,15.65
2022-12-03T14:35:31.933Z,18.15
2022-12-03T14:37:58.704Z,18.55
2022-12-03T14:40:25.853Z,16.98
2022-12-03T14:42:52.603Z,15.77
2022-12-03T14:45:20.773Z,17.65
2022-12-03T14:47:47.534Z,19.17
2022-12-03T14:50:14.721Z,20.25
2022-12-03T14:52:41.918Z,19.83
2022-12-03T14:55:09.059Z,20.90
2022-12-03T14:57:37.061Z,17.92
2022-12-03T15:00:05.630Z,21.20
2022-12-03T15:02:32.724Z,23.95
2022-12-03T15:04:59.743Z,20.23
2022-12-03T15:07:26.646Z,19.02
2022-12-03T15:09:53.862Z,20.83
2022-12-03T15:12:20.964Z,19.70
2022-12-03T15:14:47.771Z,22.27
2022-12-03T15:17:14.688Z,19.08
2022-12-03T15:19:41.652Z,18.05
2022-12-03T15:22:08.479Z,18.95
2022-12-03T15:24:35.379Z,20.05
2022-12-03T15:27:02.195Z,20.90
2022-12-03T15:29:29.019Z,19.30
2022-12-03T15:31:56.012Z,19.52
2022-12-03T15:34:23.499Z,22.52
2022-12-03T15:36:51.042Z,17.98
2022-12-03T15:39:17.864Z,18.92
2022-12-03T15:41:44.658Z,17.77
2022-12-03T15:44:11.431Z,20.88
2022-12-03T15:46:38.409Z,19.98
2022-12-03T15:49:05.234Z,18.40
2022-12-03T15:51:33.035Z,18.85
2022-12-03T15:53:59.847Z,18.42
2022-12-03T15:56:26.628Z,22.67
2022-12-03T15:58:53.679Z,20.35
2022-12-03T16:01:20.668Z,21.20
2022-12-03T16:03:47.519Z,21.27
2022-12-03T16:06:14.837Z,20.50
2022-12-03T16:08:41.762Z,22.55
2022-12-03T16:11:08.585Z,21.05
2022-12-03T16:13:35.457Z,21.55
2022-12-03T16:16:02.304Z,21.42
2022-12-03T16:18:29.198Z,24.15
2022-12-03T16:20:56.053Z,23.08
2022-12-03T16:23:22.885Z,22.83
2022-12-03T16:25:49.701Z,21.02
2022-12-03T16:28:16.650Z,24.55
2022-12-03T16:30:43.589Z,26.02
2022-12-03T16:33:10.398Z,19.65
2022-12-03T16:35:38.008Z,18.40
2022-12-03T16:38:04.960Z,20.98
2022-12-03T16:40:31.724Z,25.00
2022-12-03T16:42:58.584Z,18.60
2022-12-03T16:45:34.151Z,22.77
2022-12-03T16:48:01.747Z,20.30
2022-12-03T16:50:30.218Z,21.08
2022-12-03T16:52:58.023Z,25.15
2022-12-03T16:55:24.954Z,20.77
2022-12-03T16:57:51.739Z,21.55
2022-12-03T17:00:21.614Z,20.67
2022-12-03T17:02:48.780Z,18.80
2022-12-03T17:05:15.664Z,21.80
2022-12-03T17:07:42.523Z,20.95
2022-12-03T17:10:09.926Z,18.98
2022-12-03T17:13:07.233Z,19.35
2022-12-03T17:15:23.597Z,20.33
2022-12-03T17:17:50.357Z,20.52
2022-12-03T17:20:17.903Z,19.60
2022-12-03T17:22:44.796Z,20.63
2022-12-03T17:25:11.868Z,21.45
2022-12-03T17:27:44.793Z,19.73
2022-12-03T17:30:12.922Z,19.50
2022-12-03T17:32:40.026Z,23.40
2022-12-03T17:35:07.533Z,18.38
2022-12-03T17:37:34.443Z,23.10
2022-12-03T17:40:01.364Z,20.25
2022-12-03T17:42:28.163Z,21.50
2022-12-03T17:44:55.155Z,21.13
2022-12-03T17:47:24.755Z,19.70
2022-12-03T17:49:52.201Z,22.33
2022-12-03T17:52:19.320Z,20.40
2022-12-03T17:57:32.904Z,20.25
2022-12-03T17:59:59.821Z,18.05
2022-12-03T18:02:26.652Z,18.90
2022-12-03T18:04:53.494Z,22.02
2022-12-03T18:07:20.401Z,21.63
2022-12-03T18:09:47.184Z,20.85
2022-12-03T18:12:13.973Z,18.55
2022-12-03T18:14:40.823Z,21.58
2022-12-03T18:17:07.637Z,21.20
2022-12-03T18:19:34.415Z,18.10
2022-12-03T18:22:01.224Z,20.20
2022-12-03T18:24:28.079Z,19.40
2022-12-03T18:26:54.904Z,19.40
2022-12-03T18:29:21.777Z,17.73
2022-12-03T18:31:48.659Z,20.10
2022-12-03T18:34:15.547Z,18.15
2022-12-03T18:36:42.635Z,18.52
2022-12-03T18:39:20.094Z,18.48
2022-12-03T18:41:47.096Z,20.20
2022-12-03T18:44:13.893Z,18.00
2022-12-03T18:46:56.331Z,17.75
2022-12-03T18:49:23.536Z,16.02
2022-12-03T18:51:54.485Z,16.77
2022-12-03T18:54:25.640Z,19.88
2022-12-03T18:56:52.419Z,19.73
2022-12-03T18:59:19.246Z,20.50
2022-12-03T19:01:46.107Z,18.88
2022-12-03T19:04:13.046Z,19.88
2022-12-03T19:06:39.897Z,16.90
2022-12-03T19:09:06.719Z,19.67
2022-12-03T19:11:34.099Z,24.88
2022-12-03T19:14:02.817Z,21.20
2022-12-03T19:16:29.726Z,19.88
2022-12-03T19:18:57.149Z,16.10
2022-12-03T19:21:24.116Z,18.52
2022-12-03T19:26:37.735Z,18.73
2022-12-03T19:29:04.659Z,18.25
2022-12-03T19:31:33.447Z,20.30
2022-12-03T19:34:00.553Z,19.55
2022-12-03T19:36:29.714Z,16.98
2022-12-03T19:38:58.477Z,17.85
2022-12-03T19:41:28.217Z,18.42
2022-12-03T19:43:56.179Z,20.77
2022-12-03T19:46:25.346Z,17.52
2022-12-03T19:48:53.918Z,18.90
2022-12-03T19:51:34.022Z,18.40
2022-12-03T19:54:06.203Z,15.38
2022-12-03T19:56:34.102Z,17.15
2022-12-03T19:59:00.984Z,18.23
2022-12-03T20:01:30.365Z,18.17
2022-12-03T20:03:59.231Z,18.40
2022-12-03T20:06:28.630Z,17.42
2022-12-03T20:08:57.457Z,17.10
2022-12-03T20:11:27.431Z,13.60
2022-12-03T20:13:57.730Z,17.38
2022-12-03T20:16:25.808Z,18.67
2022-12-03T20:18:57.339Z,14.82
2022-12-03T20:21:24.146Z,16.30
2022-12-03T20:23:50.965Z,15.52
2022-12-03T20:26:20.429Z,15.98
2022-12-03T20:28:48.217Z,16.27
2022-12-03T20:31:17.845Z,14.07
2022-12-03T20:33:47.192Z,14.48
2022-12-03T20:36:16.720Z,14.98
2022-12-03T20:38:43.579Z,16.60
2022-12-03T20:41:12.774Z,14.10
2022-12-03T20:43:39.658Z,11.75
2022-12-03T20:46:08.737Z,11.75
2022-12-03T20:48:35.990Z,12.02
2022-12-03T20:51:05.070Z,12.18
2022-12-03T20:53:32.200Z,11.32
2022-12-03T20:55:59.920Z,11.18
2022-12-03T20:58:29.076Z,10.07
2022-12-03T21:00:56.209Z,10.52
2022-12-03T21:03:23.017Z,9.95
2022-12-03T21:05:49.875Z,12.02
2022-12-03T21:08:27.938Z,11.55
2022-12-03T21:11:09.916Z,9.43
2022-12-03T21:13:36.807Z,8.07
2022-12-03T21:16:08.402Z,9.75
2022-12-03T21:18:35.496Z,10.77
2022-12-03T21:21:03.357Z,8.60
2022-12-03T21:23:31.652Z,9.95
2022-12-03T21:26:16.406Z,9.38
2022-12-03T21:28:44.516Z,10.30
2022-12-03T21:31:14.476Z,10.48
2022-12-03T21:33:41.571Z,8.48
2022-12-03T21:36:09.133Z,9.68
2022-12-03T21:38:36.252Z,9.68
2022-12-03T21:41:04.247Z,8.50
2022-12-03T21:43:32.475Z,9.02
2022-12-03T21:45:59.587Z,8.35
2022-12-03T21:48:26.676Z,10.13
2022-12-03T21:51:01.267Z,9.77
2022-12-03T21:53:28.591Z,9.85
2022-12-03T21:55:55.349Z,8.10
2022-12-03T21:58:22.327Z,7.68
2022-12-03T22:00:49.142Z,10.70
2022-12-03T22:03:16.225Z,8.55
2022-12-03T22:05:43.511Z,7.72
2022-12-03T22:08:10.459Z,7.05
2022-12-03T22:10:37.275Z,9.25
2022-12-03T22:13:08.365Z,7.60
2022-12-03T22:15:37.659Z,8.40
2022-12-03T22:18:04.860Z,10.82
2022-12-03T22:20:31.682Z,6.60
2022-12-03T22:22:58.643Z,8.13
2022-12-03T22:25:25.423Z,7.95
2022-12-03T22:27:52.246Z,8.10
2022-12-03T22:30:20.182Z,8.68
2022-12-03T22:32:46.990Z,9.40
2022-12-03T22:35:14.194Z,6.25
2022-12-03T22:37:40.999Z,8.32
2022-12-03T22:40:08.235Z,8.63
2022-12-03T22:42:35.083Z,8.98
2022-12-03T22:45:01.962Z,9.55
2022-12-03T22:47:28.775Z,9.32
2022-12-03T22:49:55.906Z,8.23
2022-12-03T22:52:22.948Z,7.75
2022-12-03T22:54:49.813Z,7.93
2022-12-03T22:57:16.823Z,7.75
2022-12-03T22:59:43.786Z,7.50
2022-12-03T23:02:10.633Z,7.78
2022-12-03T23:04:37.557Z,8.40
2022-12-03T23:07:04.860Z,7.30
2022-12-03T23:09:31.902Z,9.20
2022-12-03T23:11:58.755Z,7.05
2022-12-03T23:14:25.552Z,9.20
2022-12-03T23:16:52.349Z,7.10
2022-12-03T23:19:19.899Z,7.28
2022-12-03T23:21:46.718Z,10.07
2022-12-03T23:24:13.576Z,7.63
2022-12-03T23:26:40.475Z,8.85
2022-12-03T23:29:08.506Z,6.97
2022-12-03T23:31:35.701Z,8.75
2022-12-03T23:34:03.234Z,7.32
2022-12-03T23:36:32.214Z,7.20
2022-12-03T23:38:59.480Z,8.57
2022-12-03T23:41:26.770Z,6.78
2022-12-03T23:43:54.020Z,7.05
2022-12-03T23:46:23.701Z,6.95
2022-12-03T23:48:51.817Z,6.72
2022-12-03T23:51:24.347Z,11.00
2022-12-03T23:53:53.002Z,6.50
2022-12-03T23:56:24.145Z,8.52
2022-12-03T23:58:51.392Z,7.78
